Time;durP1;ratioP1;P1;durP2;ratioP2;P2;SDS_P1;SDS_P2;PMS_P1;PMS_P2;Temp;Humidity;BMP_temperature;BMP_pressure;BME280_temperature;BME280_humidity;BME280_pressure;Samples;Min_cycle;Max_cycle;Signal;HPM_P1;HPM_P2
2021/07/21 03:33:39;;;;;;;11.77;9.37;;;;;;;18.17;58.99;99185.63;6893494;28;20228;-82
2021/07/21 03:37:01;;;;;;;10.90;8.77;;;;;;;18.24;58.79;99169.91;6872748;28;20220;-83
2021/07/21 03:40:24;;;;;;;13.03;9.70;;;;;;;18.56;57.23;99182.81;6871306;28;20212;-83
2021/07/21 03:43:46;;;;;;;12.23;9.30;;;;;;;18.60;57.21;99196.81;6871811;28;20275;-83
2021/07/21 03:47:08;;;;;;;12.47;8.80;;;;;;;18.60;57.43;99196.81;6871863;28;20212;-85
2021/07/21 03:50:31;;;;;;;12.53;9.07;;;;;;;18.48;57.59;99193.31;6869340;28;20571;-85
2021/07/21 03:53:53;;;;;;;11.77;9.37;;;;;;;18.54;57.18;99201.38;6844226;29;20268;-85
2021/07/21 03:57:18;;;;;;;10.30;8.47;;;;;;;18.59;57.00;99203.34;6844502;29;20237;-85
2021/07/21 04:00:40;;;;;;;10.57;9.43;;;;;;;18.23;58.50;99201.81;6844550;29;20237;-82
2021/07/21 04:04:02;;;;;;;11.03;8.90;;;;;;;18.63;57.18;99221.72;6844842;29;20208;-83
2021/07/21 04:07:25;;;;;;;12.40;8.80;;;;;;;18.76;56.59;99226.03;6844334;29;20206;-83
2021/07/21 04:10:49;;;;;;;12.70;8.43;;;;;;;18.52;56.97;99214.41;6843173;29;20624;-86
2021/07/21 04:14:13;;;;;;;11.73;9.13;;;;;;;17.92;59.13;99196.84;6843806;29;20233;-85
2021/07/21 04:17:36;;;;;;;12.17;9.30;;;;;;;18.32;58.43;99213.22;6855187;28;20293;-85
2021/07/21 04:20:59;;;;;;;12.60;9.17;;;;;;;18.20;58.89;99218.72;6869182;28;20233;-85
2021/07/21 04:24:23;;;;;;;11.70;8.93;;;;;;;18.44;58.25;99219.44;6868032;28;20205;-85
2021/07/21 04:27:45;;;;;;;10.63;8.40;;;;;;;18.56;57.75;99220.22;6843656;29;20229;-85
2021/07/21 04:31:07;;;;;;;13.53;9.30;;;;;;;18.34;57.87;99222.00;6865411;28;20270;-85
2021/07/21 04:34:30;;;;;;;11.13;9.23;;;;;;;17.95;59.47;99218.22;6869438;28;20229;-85
2021/07/21 04:37:51;;;;;;;13.30;9.43;;;;;;;17.98;59.16;99223.19;6870108;28;20220;-82
2021/07/21 04:41:15;;;;;;;13.00;9.80;;;;;;;18.23;59.04;99220.13;6871076;28;20259;-82
2021/07/21 04:44:37;;;;;;;12.03;9.00;;;;;;;18.27;58.84;99222.13;6869468;28;20243;-86
2021/07/21 04:47:59;;;;;;;10.80;9.10;;;;;;;18.36;58.28;99211.66;6845999;28;20206;-85
2021/07/21 04:51:22;;;;;;;19.73;9.10;;;;;;;18.36;58.23;99222.59;6853082;28;20228;-84
2021/07/21 04:54:44;;;;;;;11.43;9.33;;;;;;;18.59;58.91;99244.31;6870181;28;20582;-85
2021/07/21 04:58:07;;;;;;;11.73;9.03;;;;;;;18.74;58.35;99239.94;6870683;28;20211;-85
2021/07/21 05:01:28;;;;;;;10.07;8.57;;;;;;;19.03;57.34;99236.06;6853485;28;20233;-84
2021/07/21 05:04:50;;;;;;;11.43;9.20;;;;;;;19.04;56.82;99188.53;6843284;29;20666;-85
2021/07/21 05:08:12;;;;;;;16.00;8.53;;;;;;;19.36;56.64;99237.97;6843109;29;20214;-85
2021/07/21 05:11:33;;;;;;;12.13;9.33;;;;;;;19.95;55.79;99239.91;6849397;28;20229;-84
2021/07/21 05:14:56;;;;;;;11.40;9.10;;;;;;;19.67;55.65;99213.53;6868663;28;20828;-84
2021/07/21 05:18:18;;;;;;;9.73;8.73;;;;;;;20.22;55.14;99238.09;6850888;28;20197;-84
2021/07/21 05:21:40;;;;;;;11.53;9.37;;;;;;;20.61;54.42;99245.91;6861117;28;20222;-83
2021/07/21 05:25:01;;;;;;;12.47;9.90;;;;;;;19.70;55.35;99223.97;6843350;29;20212;-85
2021/07/21 05:28:23;;;;;;;12.60;9.57;;;;;;;20.16;55.33;99250.88;6843265;28;20202;-85
2021/07/21 05:31:46;;;;;;;11.20;9.30;;;;;;;20.17;54.82;99247.03;6842736;29;20277;-85
2021/07/21 05:35:08;;;;;;;13.30;8.87;;;;;;;;;;6841980;29;20605;-85
2021/07/21 05:38:30;;;;;;;12.73;9.33;;;;;;;21.07;53.83;99253.50;6852903;28;20631;-84
2021/07/21 05:41:56;;;;;;;12.63;9.47;;;;;;;21.78;51.77;99251.00;6868678;28;20223;-86
2021/07/21 05:45:17;;;;;;;11.97;10.13;;;;;;;21.38;52.98;99258.97;6868443;28;20203;-85
2021/07/21 05:48:40;;;;;;;14.97;10.47;;;;;;;21.74;53.16;99249.91;6867457;28;20720;-83
2021/07/21 05:52:02;;;;;;;16.03;11.07;;;;;;;21.99;52.21;99241.78;6869025;28;20229;-83
2021/07/21 05:55:24;;;;;;;12.90;9.80;;;;;;;22.53;50.76;99245.03;6867085;28;20569;-85
2021/07/21 05:58:46;;;;;;;13.13;10.73;;;;;;;21.89;52.33;99249.97;6867647;28;20262;-85
2021/07/21 06:02:08;;;;;;;11.77;9.87;;;;;;;22.50;52.60;99265.63;6868153;28;20716;-85
2021/07/21 06:05:31;;;;;;;13.57;9.67;;;;;;;22.50;51.40;99262.03;6866113;28;20706;-86
2021/07/21 06:08:52;;;;;;;14.83;10.57;;;;;;;22.07;52.38;99271.47;6864663;28;20216;-85
2021/07/21 06:12:14;;;;;;;14.87;10.27;;;;;;;21.98;52.24;99258.50;6865677;28;20715;-86
2021/07/21 06:15:36;;;;;;;13.17;10.07;;;;;;;22.68;50.74;99262.38;6865397;28;20634;-86
2021/07/21 06:18:58;;;;;;;11.87;9.23;;;;;;;23.74;48.08;99274.22;6864380;28;20692;-86
2021/07/21 06:22:21;;;;;;;17.53;9.93;;;;;;;23.11;48.76;99274.78;6865230;28;20235;-86
2021/07/21 06:25:42;;;;;;;13.50;10.33;;;;;;;23.52;48.25;99290.22;6865707;28;20204;-85
2021/07/21 06:29:04;;;;;;;14.27;10.60;;;;;;;23.97;46.99;99290.19;6864110;28;20255;-86
2021/07/21 06:32:26;;;;;;;12.30;10.30;;;;;;;24.17;46.73;99293.69;6864427;28;20239;-85
2021/07/21 06:35:48;;;;;;;13.97;9.90;;;;;;;24.13;46.94;99291.78;6864996;28;20220;-86
2021/07/21 06:39:11;;;;;;;12.50;9.93;;;;;;;24.78;44.79;99289.56;6851706;28;20232;-86
2021/07/21 06:42:33;;;;;;;16.60;10.40;;;;;;;25.42;43.21;99292.19;6839409;29;20226;-85
2021/07/21 06:45:54;;;;;;;13.97;10.43;;;;;;;24.91;44.23;99299.16;6839625;29;20550;-86
2021/07/21 06:49:16;;;;;;;13.93;9.63;;;;;;;25.73;42.41;99291.59;6841374;29;20279;-88
2021/07/21 06:52:38;;;;;;;11.97;9.80;;;;;;;25.64;42.73;99303.56;6840666;29;20596;-86
2021/07/21 06:56:01;;;;;;;10.77;9.60;;;;;;;26.21;41.26;99276.72;6864270;28;20211;-85
2021/07/21 06:59:24;;;;;;;13.77;9.90;;;;;;;24.63;43.79;99302.63;6867260;28;20198;-85
2021/07/21 07:02:46;;;;;;;11.80;9.60;;;;;;;24.95;44.66;99278.16;6870774;28;20241;-87
2021/07/21 07:06:08;;;;;;;10.33;9.27;;;;;;;24.38;44.85;99298.03;6869742;28;20654;-86
2021/07/21 07:09:29;;;;;;;10.27;9.27;;;;;;;24.38;45.35;99313.75;6868435;28;20680;-86
2021/07/21 07:12:53;;;;;;;11.53;9.20;;;;;;;25.48;43.15;99305.63;6868735;28;20231;-85
2021/07/21 07:16:14;;;;;;;11.23;9.97;;;;;;;25.57;44.06;99308.59;6868750;28;20216;-87
2021/07/21 07:19:36;;;;;;;13.17;9.23;;;;;;;25.46;42.86;99298.75;6868605;28;20201;-85
2021/07/21 07:22:57;;;;;;;12.33;8.90;;;;;;;26.00;42.94;99316.75;6868905;28;20604;-86
2021/07/21 07:26:19;;;;;;;10.57;8.40;;;;;;;26.85;40.85;99304.66;6868745;28;20216;-85
2021/07/21 07:29:42;;;;;;;12.67;9.27;;;;;;;26.01;42.31;99304.59;6868200;28;20220;-86
2021/07/21 07:33:04;;;;;;;12.13;9.37;;;;;;;27.19;41.10;99299.75;6868650;28;20233;-86
2021/07/21 07:36:26;;;;;;;10.43;8.67;;;;;;;26.35;41.33;99298.94;6870794;28;20206;-85
2021/07/21 07:39:48;;;;;;;11.67;8.73;;;;;;;26.18;41.52;99291.13;6869620;28;20205;-86
2021/07/21 07:43:10;;;;;;;11.30;8.67;;;;;;;26.32;42.30;99294.81;6869418;28;20225;-86
2021/07/21 07:46:33;;;;;;;10.33;8.37;;;;;;;27.30;40.21;99265.22;6870625;28;20201;-87
2021/07/21 07:49:55;;;;;;;11.80;8.67;;;;;;;26.68;39.97;99256.50;6858609;28;20661;-86
2021/07/21 07:53:17;;;;;;;9.17;8.27;;;;;;;26.67;41.13;99288.06;6844610;29;20234;-88
2021/07/21 07:56:38;;;;;;;11.47;8.13;;;;;;;27.28;39.23;99286.88;6844452;29;20217;-87
2021/07/21 08:00:00;;;;;;;11.03;8.70;;;;;;;28.27;37.74;99280.63;6845268;29;20204;-88
2021/07/21 08:03:23;;;;;;;11.67;8.40;;;;;;;26.84;40.19;99286.41;6867365;28;20222;-89
2021/07/21 08:06:45;;;;;;;16.43;9.00;;;;;;;27.48;38.50;99272.66;6877632;28;20221;-87
2021/07/21 08:10:12;;;;;;;10.93;9.37;;;;;;;27.33;40.86;99280.44;6878507;28;20215;-87
2021/07/21 08:13:34;;;;;;;9.00;8.10;;;;;;;28.26;38.22;99278.97;6877497;28;20573;-91
2021/07/21 08:16:56;;;;;;;11.50;8.73;;;;;;;28.85;36.69;99276.03;6875040;28;20304;-87
2021/07/21 08:20:20;;;;;;;11.53;8.27;;;;;;;29.20;35.23;99255.00;6875292;28;20213;-88
2021/07/21 08:23:41;;;;;;;9.07;8.00;;;;;;;28.82;36.58;99278.63;6876115;28;20214;-87
2021/07/21 08:27:04;;;;;;;9.43;8.47;;;;;;;27.04;39.79;99274.22;6871874;28;20216;-89
2021/07/21 08:30:26;;;;;;;12.47;9.17;;;;;;;25.82;42.33;99270.50;6875603;28;20209;-88
2021/07/21 08:33:47;;;;;;;10.60;8.97;;;;;;;26.31;41.36;99242.59;6881796;28;20222;-88
2021/07/21 08:37:13;;;;;;;9.60;8.23;;;;;;;28.41;37.77;99244.56;6884738;28;20209;-88
2021/07/21 08:40:36;;;;;;;10.00;8.17;;;;;;;29.59;36.25;99246.78;6884642;28;20282;-89
2021/07/21 08:44:07;;;;;;;9.57;8.33;;;;;;;28.64;37.62;99257.38;6885085;28;20217;-90
2021/07/21 08:47:40;;;;;;;9.53;8.53;;;;;;;29.95;35.29;99251.06;6885940;28;20216;-90
2021/07/21 08:51:19;;;;;;;9.77;7.93;;;;;;;30.83;34.08;99249.91;6885730;28;20300;-90
2021/07/21 08:54:58;;;;;;;9.50;8.50;;;;;;;31.22;33.15;99266.47;6888063;28;20215;-90
2021/07/21 09:02:24;;;;;;;10.73;8.07;;;;;;;30.30;34.06;99261.22;6878179;28;20615;-90
2021/07/21 09:06:33;;;;;;;8.87;7.60;;;;;;;29.94;34.67;99260.56;6886537;28;20209;-89
2021/07/21 09:14:43;;;;;;;9.13;7.67;;;;;;;29.30;35.10;99238.06;6730901;29;20230;-89
2021/07/21 09:22:24;;;;;;;15.00;8.67;;;;;;;31.44;31.78;99250.38;6833919;29;20232;-90
2021/07/21 09:26:08;;;;;;;10.30;8.33;;;;;;;31.43;32.14;99240.38;6832836;29;20261;-90
2021/07/21 09:33:14;;;;;;;8.83;7.93;;;;;;;31.18;33.05;99257.97;6910344;23;20239;-83
2021/07/21 09:36:36;;;;;;;12.83;8.00;;;;;;;30.62;32.65;99251.63;6920375;28;20691;-82
2021/07/21 09:39:58;;;;;;;8.50;7.63;;;;;;;31.62;31.94;99259.56;6920929;28;20207;-83
2021/07/21 09:43:22;;;;;;;10.00;7.90;;;;;;;29.04;35.52;99248.16;6897921;28;20588;-85
2021/07/21 09:46:44;;;;;;;11.57;8.80;;;;;;;30.33;33.05;99251.41;6894540;28;20210;-84
2021/07/21 09:50:13;;;;;;;8.27;7.30;;;;;;;30.96;33.62;99240.56;6894695;28;20247;-85
2021/07/21 09:53:41;;;;;;;10.30;7.37;;;;;;;32.12;31.41;99241.03;6894046;28;20210;-84
2021/07/21 09:57:12;;;;;;;10.23;7.67;;;;;;;32.69;31.52;99223.50;6895420;28;20209;-86
2021/07/21 10:00:46;;;;;;;9.30;7.43;;;;;;;32.26;30.49;99247.25;6891079;28;20312;-84
2021/07/21 10:04:07;;;;;;;10.23;7.90;;;;;;;32.84;29.53;99236.88;6893711;28;20199;-85
2021/07/21 10:07:48;;;;;;;8.97;7.83;;;;;;;32.44;29.07;99204.13;6893193;28;20218;-84
2021/07/21 10:11:35;;;;;;;8.97;7.50;;;;;;;31.95;29.79;99261.44;6892397;28;20243;-86
2021/07/21 10:14:58;;;;;;;8.43;7.63;;;;;;;32.06;29.71;99217.25;6878569;28;20225;-84
2021/07/21 10:18:22;;;;;;;9.43;7.97;;;;;;;32.60;28.88;99245.06;6892622;28;20233;-90
2021/07/21 10:22:00;;;;;;;9.40;8.33;;;;;;;31.64;29.83;99187.53;6893047;28;20229;-85
2021/07/21 10:25:23;;;;;;;9.63;7.80;;;;;;;32.31;29.82;99245.06;6816424;29;20293;-84
2021/07/21 10:28:44;;;;;;;9.07;7.03;;;;;;;32.50;29.51;99245.47;6821313;29;20209;-83
2021/07/21 10:32:07;;;;;;;9.53;8.60;;;;;;;32.98;28.75;99243.03;6813072;29;20235;-84
2021/07/21 10:35:31;;;;;;;8.97;7.43;;;;;;;33.49;28.33;99236.97;6814609;29;20229;-83
2021/07/21 10:38:53;;;;;;;8.97;7.77;;;;;;;32.06;29.49;99159.47;6816031;29;20309;-83
2021/07/21 10:42:16;;;;;;;9.70;8.47;;;;;;;32.69;29.72;99236.63;6814776;29;20225;-84
2021/07/21 10:45:37;;;;;;;8.83;7.97;;;;;;;31.99;29.58;99170.38;6815498;29;20212;-83
2021/07/21 10:49:15;;;;;;;9.30;8.33;;;;;;;31.59;30.77;99238.72;6822033;29;20218;-84
2021/07/21 10:52:51;;;;;;;8.60;7.70;;;;;;;31.73;30.48;99216.25;6828388;29;20226;-83
2021/07/21 11:00:16;;;;;;;10.93;7.80;;;;;;;31.71;29.81;99229.66;6787735;29;20187;-84
2021/07/21 11:03:45;;;;;;;8.83;7.77;;;;;;;31.58;30.79;99228.72;6868800;28;20260;-83
2021/07/21 11:07:07;;;;;;;9.27;8.27;;;;;;;29.63;33.07;99228.34;6869892;28;20189;-83
2021/07/21 11:10:35;;;;;;;12.00;8.50;;;;;;;30.60;31.57;99198.25;6870547;28;20214;-83
2021/07/21 11:13:58;;;;;;;9.37;8.23;;;;;;;30.86;31.77;99229.75;6870455;28;20207;-83
2021/07/21 11:17:19;;;;;;;9.37;8.23;;;;;;;30.68;31.94;99216.97;6870804;28;20215;-83
2021/07/21 11:21:00;;;;;;;9.50;8.40;;;;;;;31.93;30.77;99221.09;6869176;28;20228;-84
2021/07/21 11:24:21;;;;;;;10.27;8.83;;;;;;;31.80;29.95;99214.59;6870765;28;20204;-84
2021/07/21 11:27:46;;;;;;;8.63;7.57;;;;;;;31.99;29.49;99217.78;6870622;28;20210;-84
2021/07/21 11:31:08;;;;;;;9.70;8.00;;;;;;;33.08;28.08;99199.88;6869439;28;20237;-84
2021/07/21 11:34:30;;;;;;;9.10;8.27;;;;;;;33.80;27.39;99209.38;6869978;28;20737;-85
2021/07/21 11:37:52;;;;;;;9.30;8.40;;;;;;;33.54;27.22;99197.59;6870045;28;20224;-84
2021/07/21 11:41:47;;;;;;;8.83;7.50;;;;;;;33.36;27.45;99203.75;6869763;28;20228;-84
2021/07/21 11:45:22;;;;;;;9.43;8.50;;;;;;;31.96;29.32;99214.84;6870266;28;20229;-83
2021/07/21 11:48:47;;;;;;;9.57;8.03;;;;;;;33.30;28.51;99211.50;6870595;28;20213;-84
2021/07/21 11:52:09;;;;;;;9.73;8.63;;;;;;;33.77;27.17;99156.06;6869699;28;20236;-83
2021/07/21 11:55:32;;;;;;;9.57;8.33;;;;;;;33.83;27.26;99203.06;6870026;28;20225;-84
2021/07/21 11:59:04;;;;;;;11.13;8.40;;;;;;;34.48;26.45;99199.25;6868856;28;20306;-84
2021/07/21 12:02:27;;;;;;;8.90;8.07;;;;;;;34.73;25.88;99203.66;6870364;28;20698;-84
2021/07/21 12:05:56;;;;;;;10.23;9.23;;;;;;;34.20;26.98;99207.50;6871601;28;21062;-84
2021/07/21 12:09:26;;;;;;;9.13;8.20;;;;;;;34.13;25.97;99193.28;6874273;28;20232;-84
2021/07/21 12:12:47;;;;;;;9.87;8.97;;;;;;;32.92;27.79;99199.69;6874910;28;20232;-83
2021/07/21 12:16:09;;;;;;;9.53;8.63;;;;;;;33.10;28.46;99191.94;6874299;28;20240;-84
2021/07/21 12:19:33;;;;;;;10.50;8.30;;;;;;;33.57;27.33;99132.59;6868966;28;20212;-84
2021/07/21 12:22:58;;;;;;;10.33;8.63;;;;;;;33.56;26.40;99186.91;6877465;28;20592;-84
2021/07/21 12:26:20;;;;;;;9.23;8.27;;;;;;;33.83;27.20;99186.28;6896008;28;20195;-84
2021/07/21 12:29:42;;;;;;;10.03;8.47;;;;;;;33.40;27.12;99185.09;6894008;28;20215;-84
2021/07/21 12:33:04;;;;;;;10.10;8.87;;;;;;;33.11;28.00;99190.78;6893468;28;20240;-85
2021/07/21 12:36:27;;;;;;;11.73;9.43;;;;;;;32.65;28.05;99165.84;6895433;28;20250;-84
2021/07/21 12:39:50;;;;;;;12.20;8.63;;;;;;;32.16;28.21;99184.22;6895310;28;20208;-84
2021/07/21 12:43:14;;;;;;;10.43;9.40;;;;;;;32.26;28.45;99181.06;6893606;28;20239;-85
2021/07/21 12:46:36;;;;;;;9.67;8.67;;;;;;;32.29;28.83;99171.19;6894694;28;20684;-87
2021/07/21 12:49:59;;;;;;;11.03;8.80;;;;;;;31.61;28.38;99116.50;6895274;28;20211;-86
2021/07/21 12:53:22;;;;;;;11.47;8.83;;;;;;;32.78;27.74;99173.97;6895595;28;20686;-88
2021/07/21 12:56:46;;;;;;;11.23;9.37;;;;;;;32.53;27.41;99110.75;6893609;28;20231;-85
2021/07/21 13:00:12;;;;;;;10.23;9.13;;;;;;;31.88;28.41;99188.63;6893163;28;20200;-84
2021/07/21 13:03:34;;;;;;;11.83;9.87;;;;;;;31.83;29.65;99176.84;6894198;28;20227;-84
2021/07/21 13:07:02;;;;;;;10.03;9.10;;;;;;;32.78;28.59;99182.34;6895104;28;20212;-84
2021/07/21 13:10:25;;;;;;;10.87;9.57;;;;;;;32.29;29.32;99173.97;6893242;28;20210;-83
2021/07/21 13:13:53;;;;;;;9.33;8.30;;;;;;;31.81;28.75;99173.56;6894799;28;20568;-84
2021/07/21 13:17:18;;;;;;;9.90;8.27;;;;;;;32.02;28.87;99180.84;6894947;28;20191;-84
2021/07/21 13:20:44;;;;;;;9.30;7.83;;;;;;;32.42;28.92;99170.16;6894405;28;20258;-84
2021/07/21 13:24:12;;;;;;;9.37;8.47;;;;;;;32.48;27.43;99166.00;6895424;28;20194;-84
2021/07/21 13:27:35;;;;;;;9.17;8.10;;;;;;;33.81;26.69;99154.22;6893171;28;20181;-84
2021/07/21 13:30:59;;;;;;;8.97;8.10;;;;;;;33.54;26.83;99158.44;6866995;28;20244;-84
2021/07/21 13:34:22;;;;;;;12.57;9.33;;;;;;;32.48;27.84;99166.78;6872651;28;20236;-84
2021/07/21 13:37:43;;;;;;;11.03;8.70;;;;;;;32.14;27.33;99133.50;6867360;28;20232;-85
2021/07/21 13:41:06;;;;;;;10.20;8.70;;;;;;;32.05;28.74;99151.44;6866577;28;20590;-84
2021/07/21 13:44:31;;;;;;;9.60;8.70;;;;;;;32.76;27.61;99148.38;6866604;28;20208;-85
2021/07/21 13:47:57;;;;;;;10.10;9.10;;;;;;;33.55;27.03;99146.09;6866133;28;20829;-85
2021/07/21 13:51:19;;;;;;;9.27;8.20;;;;;;;33.96;26.15;99129.13;6865006;28;20325;-84
2021/07/21 13:54:42;;;;;;;9.50;7.77;;;;;;;32.06;27.70;99172.59;6865722;28;20320;-85
2021/07/21 13:58:03;;;;;;;9.50;8.50;;;;;;;32.93;26.70;99153.81;6865254;28;20223;-84
2021/07/21 14:01:26;;;;;;;11.20;8.67;;;;;;;33.25;26.27;99160.56;6865956;28;20245;-84
2021/07/21 14:04:48;;;;;;;10.27;8.47;;;;;;;32.53;28.49;99154.59;6879293;28;20208;-84
2021/07/21 14:08:10;;;;;;;9.63;8.07;;;;;;;32.50;28.60;99153.34;6876123;28;20205;-84
2021/07/21 14:11:33;;;;;;;10.63;7.87;;;;;;;33.03;27.71;99152.56;6871573;28;20228;-84
2021/07/21 14:14:55;;;;;;;10.13;7.53;;;;;;;32.81;28.03;99153.75;6871597;28;20314;-87
2021/07/21 14:18:18;;;;;;;8.83;7.60;;;;;;;33.03;27.02;99135.81;6872489;28;20216;-84
2021/07/21 14:21:41;;;;;;;8.40;7.03;;;;;;;33.27;26.24;99130.31;6913744;28;20227;-85
2021/07/21 14:25:06;;;;;;;8.30;7.37;;;;;;;33.54;26.51;99150.06;6925692;28;20279;-85
2021/07/21 14:28:29;;;;;;;7.93;7.10;;;;;;;33.27;27.46;99139.53;6924320;28;20199;-85
2021/07/21 14:31:52;;;;;;;9.30;7.30;;;;;;;33.19;26.17;99142.38;6904979;28;20288;-85
2021/07/21 14:35:15;;;;;;;10.90;7.20;;;;;;;33.06;26.60;99070.81;6900030;28;20230;-86
2021/07/21 14:38:38;;;;;;;7.23;6.63;;;;;;;33.25;25.83;99127.81;6911922;28;20207;-85
2021/07/21 14:41:59;;;;;;;8.63;7.70;;;;;;;32.67;26.46;99142.00;6901653;28;20286;-88
2021/07/21 14:45:21;;;;;;;7.67;6.87;;;;;;;32.16;27.83;99138.75;6911106;28;20207;-84
2021/07/21 14:48:43;;;;;;;7.60;6.80;;;;;;;32.60;27.43;99138.94;6926132;28;20668;-84
2021/07/21 14:52:08;;;;;;;8.80;7.47;;;;;;;32.23;27.39;99120.31;6919727;28;20234;-84
2021/07/21 14:55:29;;;;;;;8.03;7.17;;;;;;;32.42;27.79;99129.06;6911532;28;20254;-84
2021/07/21 14:58:51;;;;;;;8.20;7.40;;;;;;;32.00;27.05;99143.25;6925254;28;20226;-85
2021/07/21 15:02:12;;;;;;;7.77;7.07;;;;;;;32.30;27.05;99134.56;6926511;28;20274;-87
2021/07/21 15:05:34;;;;;;;7.83;7.13;;;;;;;31.27;28.24;99097.16;6924148;28;20197;-85
2021/07/21 15:08:57;;;;;;;10.53;7.30;;;;;;;31.42;29.59;99140.41;6899360;28;20208;-85
2021/07/21 15:12:19;;;;;;;8.70;7.20;;;;;;;31.80;28.13;99033.31;6899543;28;20693;-84
2021/07/21 15:15:41;;;;;;;7.97;7.27;;;;;;;32.52;27.69;99111.91;6899895;28;20237;-84
2021/07/21 15:19:03;;;;;;;8.97;7.40;;;;;;;31.70;28.75;99142.41;6899017;28;20220;-84
2021/07/21 15:22:25;;;;;;;9.10;7.17;;;;;;;31.50;28.01;99148.72;6899486;28;20225;-84
2021/07/21 15:25:48;;;;;;;8.57;7.10;;;;;;;32.57;27.62;99120.09;6899390;28;20228;-84
2021/07/21 15:29:09;;;;;;;8.90;8.00;;;;;;;31.81;27.50;99106.63;6897771;28;20207;-85
2021/07/21 15:32:31;;;;;;;9.07;7.50;;;;;;;32.04;28.23;99122.75;6898043;28;20236;-84
2021/07/21 15:35:54;;;;;;;10.97;7.33;;;;;;;32.30;27.17;99130.97;6897944;28;20227;-84
2021/07/21 15:39:17;;;;;;;11.60;7.30;;;;;;;32.76;27.02;99122.41;6897652;28;20226;-85
2021/07/21 15:42:40;;;;;;;9.10;7.03;;;;;;;32.30;27.08;99131.78;6898669;28;20223;-85
2021/07/21 15:46:02;;;;;;;10.17;6.93;;;;;;;32.56;26.69;99121.25;6897878;28;20213;-84
2021/07/21 15:49:25;;;;;;;8.30;7.40;;;;;;;32.22;27.08;99134.59;6897460;28;20207;-85
2021/07/21 15:52:46;;;;;;;7.50;6.77;;;;;;;31.21;28.94;99136.66;6896533;28;20229;-85
2021/07/21 15:56:08;;;;;;;8.20;7.40;;;;;;;30.60;29.63;99109.97;6897847;28;20238;-85
2021/07/21 15:59:33;;;;;;;7.73;6.93;;;;;;;31.19;28.86;99117.50;6897168;28;20571;-84
2021/07/21 16:02:54;;;;;;;10.80;7.70;;;;;;;31.69;27.28;99142.72;6897434;28;20263;-85
2021/07/21 16:06:16;;;;;;;7.73;7.03;;;;;;;31.39;27.89;99114.00;6897227;28;20718;-84
2021/07/21 16:09:38;;;;;;;8.53;7.70;;;;;;;31.82;27.62;99138.94;6896704;28;20215;-85
2021/07/21 16:13:01;;;;;;;9.47;7.37;;;;;;;31.90;27.04;99136.09;6897152;28;20697;-85
2021/07/21 16:16:24;;;;;;;9.00;7.30;;;;;;;31.80;28.22;99113.34;6897406;28;20715;-85
2021/07/21 16:19:46;;;;;;;10.57;7.40;;;;;;;31.32;28.71;99122.03;6896596;28;20201;-85
2021/07/21 16:23:08;;;;;;;7.83;7.07;;;;;;;31.35;28.99;99134.50;6897006;28;20228;-84
2021/07/21 16:26:30;;;;;;;9.07;6.70;;;;;;;31.24;28.80;99120.09;6897437;28;20213;-85
2021/07/21 16:29:52;;;;;;;11.20;7.50;;;;;;;31.62;27.76;99129.31;6896775;28;20211;-84
2021/07/21 16:33:15;;;;;;;7.63;6.87;;;;;;;31.35;28.81;99128.91;6908440;28;20228;-86
2021/07/21 16:36:36;;;;;;;9.43;7.17;;;;;;;31.35;27.65;99020.22;6923152;28;20230;-84
2021/07/21 16:39:58;;;;;;;10.83;7.50;;;;;;;31.41;28.70;99117.25;6933092;22;20236;-84
2021/07/21 16:43:20;;;;;;;8.87;6.40;;;;;;;31.54;28.30;99124.59;6896195;28;20213;-83
2021/07/21 16:46:41;;;;;;;8.93;6.73;;;;;;;30.98;28.80;99118.50;6895992;28;20711;-84
2021/07/21 16:50:06;;;;;;;7.33;6.60;;;;;;;31.86;27.87;99128.75;6893854;28;20225;-83
2021/07/21 16:53:28;;;;;;;8.67;7.10;;;;;;;30.90;28.67;99100.63;6894356;28;20244;-84
2021/07/21 16:56:50;;;;;;;8.50;6.30;;;;;;;31.40;28.66;99128.75;6894359;28;20230;-83
2021/07/21 17:00:15;;;;;;;7.70;6.90;;;;;;;30.70;28.80;99126.41;6893869;28;20230;-84
2021/07/21 17:03:37;;;;;;;9.20;6.67;;;;;;;30.33;30.16;99113.09;6895030;28;20584;-84
2021/07/21 17:07:00;;;;;;;8.00;6.67;;;;;;;30.78;29.07;99133.09;6895357;28;20213;-83
2021/07/21 17:10:22;;;;;;;9.80;6.53;;;;;;;31.25;28.68;99124.53;6894111;28;20211;-84
2021/07/21 17:13:43;;;;;;;8.17;6.87;;;;;;;30.65;29.25;99118.19;6894810;28;20236;-84
2021/07/21 17:17:05;;;;;;;7.83;6.97;;;;;;;31.26;28.83;99131.72;6893895;28;20227;-83
2021/07/21 17:20:30;;;;;;;8.33;7.33;;;;;;;31.18;28.00;99110.28;6881460;28;20220;-82
2021/07/21 17:23:53;;;;;;;8.47;6.73;;;;;;;31.23;28.00;99128.78;6896149;28;20206;-84
2021/07/21 17:27:15;;;;;;;8.90;7.20;;;;;;;31.04;28.83;99133.88;6895083;28;20225;-83
2021/07/21 17:30:36;;;;;;;8.47;6.53;;;;;;;30.71;28.72;99133.59;6893987;28;20221;-83
2021/07/21 17:33:58;;;;;;;8.60;7.30;;;;;;;30.65;28.99;99142.44;6894107;28;20696;-84
2021/07/21 17:37:19;;;;;;;7.30;6.43;;;;;;;31.01;28.47;99135.34;6893767;28;20236;-84
2021/07/21 17:40:43;;;;;;;7.00;6.07;;;;;;;30.42;29.20;99135.38;6894582;28;20222;-83
2021/07/21 17:44:05;;;;;;;7.10;6.40;;;;;;;29.66;30.04;99127.63;6894062;28;20207;-83
2021/07/21 17:47:27;;;;;;;6.70;6.10;;;;;;;30.30;28.60;99130.44;6866960;28;20228;-86
2021/07/21 17:50:48;;;;;;;7.03;5.80;;;;;;;30.62;28.48;99132.75;6867037;28;20207;-85
2021/07/21 17:54:13;;;;;;;6.63;6.03;;;;;;;30.62;28.71;99124.41;6885707;28;20209;-85
2021/07/21 17:57:37;;;;;;;7.00;6.27;;;;;;;30.10;29.55;99127.44;6867244;28;20581;-85
2021/07/21 18:00:59;;;;;;;8.77;6.13;;;;;;;30.42;29.50;99132.59;6867087;28;20218;-87
2021/07/21 18:04:21;;;;;;;8.40;6.17;;;;;;;30.58;28.55;99129.00;6889429;28;20570;-85
2021/07/21 18:07:43;;;;;;;12.20;6.13;;;;;;;30.57;28.70;99135.69;6894333;28;20238;-85
2021/07/21 18:11:05;;;;;;;6.50;5.90;;;;;;;30.73;28.74;99144.41;6893439;28;20212;-85
2021/07/21 18:14:28;;;;;;;7.80;5.93;;;;;;;30.66;28.89;99142.09;6893707;28;20208;-86
2021/07/21 18:17:50;;;;;;;8.13;6.73;;;;;;;30.36;29.79;99122.75;6892766;28;20235;-85
2021/07/21 18:21:14;;;;;;;8.93;6.20;;;;;;;30.16;29.06;99115.84;6893057;28;20397;-86
2021/07/21 18:24:40;;;;;;;7.37;6.67;;;;;;;30.38;28.89;99151.88;6893347;28;20202;-85
2021/07/21 18:28:01;;;;;;;7.93;5.93;;;;;;;29.82;29.48;99095.44;6889948;28;20226;-84
2021/07/21 18:31:24;;;;;;;6.50;5.77;;;;;;;30.20;29.87;99164.13;6885205;28;20265;-83
2021/07/21 18:34:46;;;;;;;6.93;6.10;;;;;;;29.93;30.69;99156.03;6873859;28;20202;-85
2021/07/21 18:38:09;;;;;;;8.90;5.90;;;;;;;30.04;29.21;99159.31;6865608;28;20244;-85
2021/07/21 18:41:30;;;;;;;7.67;6.50;;;;;;;30.03;33.18;99127.91;6873403;28;20205;-85
2021/07/21 18:44:52;;;;;;;7.20;6.50;;;;;;;30.03;34.11;99164.06;6891908;28;20218;-85
2021/07/21 18:48:15;;;;;;;10.57;6.77;;;;;;;29.28;35.41;99118.94;6891342;28;20227;-84
2021/07/21 18:51:37;;;;;;;8.93;6.83;;;;;;;29.20;36.06;99169.69;6891003;28;20208;-84
2021/07/21 18:54:58;;;;;;;7.63;6.67;;;;;;;29.24;36.06;99161.56;6891039;28;20206;-84
2021/07/21 18:58:20;;;;;;;7.97;6.70;;;;;;;29.08;35.97;99161.09;6894968;28;20241;-85
2021/07/21 19:01:42;;;;;;;8.00;5.90;;;;;;;28.72;36.49;99173.41;6896885;28;20217;-85
2021/07/21 19:05:05;;;;;;;8.87;6.10;;;;;;;28.59;36.26;99163.97;6882787;28;20199;-84
2021/07/21 19:08:27;;;;;;;6.93;6.20;;;;;;;28.35;37.18;99180.03;6886549;28;20224;-84
2021/07/21 19:11:49;;;;;;;7.63;6.93;;;;;;;27.57;39.13;99173.06;6897282;28;20212;-84
2021/07/21 19:15:12;;;;;;;7.53;6.30;;;;;;;27.43;40.05;99178.56;6891666;28;20280;-84
2021/07/21 19:18:34;;;;;;;8.30;7.40;;;;;;;27.45;40.38;99184.66;6869807;28;20240;-84
2021/07/21 19:21:57;;;;;;;7.57;6.87;;;;;;;27.25;40.56;99164.81;6886905;28;20208;-84
2021/07/21 19:25:19;;;;;;;8.20;6.73;;;;;;;27.08;41.59;99192.22;6895493;28;20204;-83
2021/07/21 19:28:41;;;;;;;10.50;8.47;;;;;;;26.93;42.50;99195.22;6896051;28;20227;-84
2021/07/21 19:32:03;;;;;;;11.97;8.30;;;;;;;26.33;44.12;99199.72;6896074;28;20201;-84
2021/07/21 19:35:24;;;;;;;9.00;7.83;;;;;;;26.24;44.32;99190.41;6891500;28;20204;-84
2021/07/21 19:38:47;;;;;;;12.03;8.10;;;;;;;26.08;44.65;99177.91;6896047;28;20228;-83
2021/07/21 19:42:09;;;;;;;11.37;7.87;;;;;;;26.06;45.41;99206.97;6896336;28;20210;-88
2021/07/21 19:45:31;;;;;;;11.07;8.43;;;;;;;25.56;46.48;99207.53;6894176;28;20207;-84